Terminal Aerodrome Forecast
Issued by NWS

Home | Current Version | Previous Version | Text Only | Print | Product List | Glossary On
Versions: 1 2 3 4 5 6 7 8 9 10 11 12 13 14 15 16 17 18 19 20 21
000
FTUS45 KPIH 302300
TAFSUN
TAF
KSUN 302320Z 3100/3124 12007KT P6SM SCT110
     FM310300 31010KT P6SM FEW150
     FM311900 12006KT 6SM BR FEW005
      AMD LTD TO CLD VIS AND WIND 3106/3114=

USA.gov is the U.S. government's official web portal to all federal, state and local government web resources and services.